Terminal Aerodrome Forecast
Issued by NWS Spokane, WA

Home | Current Version | Previous Version | Text Only | Print | Product List | Glossary On
Versions: 1 2 3 4 5 6 7 8 9 10 11 12 13 14 15 16 17 18 19 20 21 22
000
FTUS46 KOTX 220112 AAA
TAFGEG
TAF AMD
KGEG 220112Z 2201/2224 15011KT 6SM -RA BR SCT020 OVC026
     FM220700 21025G35KT P6SM -RA SCT015 OVC025
      TEMPO 2210/2214 5SM RA BKN015 OVC025
     FM221400 23025G40KT P6SM -SHRA BKN040 OVC070
     FM221700 23020G30KT P6SM SCT040 BKN100=

USA.gov is the U.S. government's official web portal to all federal, state and local government web resources and services.